createdAt,value
2023-02-09T00:00:26.242Z,57.95
2023-02-09T00:00:57.618Z,57.95
2023-02-09T00:01:30.790Z,58.10
2023-02-09T00:02:04.117Z,58.26
2023-02-09T00:02:37.342Z,57.63
2023-02-09T00:03:10.079Z,57.36
2023-02-09T00:03:42.819Z,58.79
2023-02-09T00:04:14.339Z,57.69
2023-02-09T00:04:47.501Z,58.06
2023-02-09T00:05:20.910Z,58.06
2023-02-09T00:05:54.007Z,58.13
2023-02-09T00:06:26.982Z,57.12
2023-02-09T00:07:00.515Z,58.06
2023-02-09T00:07:33.812Z,56.96
2023-02-09T00:08:06.722Z,58.24
2023-02-09T00:08:39.468Z,57.92
2023-02-09T00:09:10.945Z,57.92
2023-02-09T00:09:43.444Z,58.06
2023-02-09T00:10:14.947Z,58.16
2023-02-09T00:10:48.192Z,58.06
2023-02-09T00:11:21.713Z,57.35
2023-02-09T00:11:54.714Z,57.79
2023-02-09T00:12:27.810Z,57.83
2023-02-09T00:13:01.283Z,58.18
2023-02-09T00:13:34.987Z,58.05
2023-02-09T00:14:06.507Z,58.12
2023-02-09T00:14:39.215Z,57.21
2023-02-09T00:15:11.051Z,57.86
2023-02-09T00:15:43.752Z,58.05
2023-02-09T00:16:16.899Z,58.21
2023-02-09T00:16:50.102Z,58.50
2023-02-09T00:17:21.565Z,57.99
2023-02-09T00:17:55.560Z,58.48
2023-02-09T00:18:28.681Z,57.70
2023-02-09T00:19:01.744Z,58.73
2023-02-09T00:19:36.751Z,58.23
2023-02-09T00:20:09.989Z,58.29
2023-02-09T00:20:42.996Z,58.43
2023-02-09T00:21:16.276Z,58.41
2023-02-09T00:21:49.503Z,58.51
2023-02-09T00:22:24.437Z,58.35
2023-02-09T00:22:58.287Z,58.54
2023-02-09T00:23:32.188Z,58.05
2023-02-09T00:24:04.131Z,57.52
2023-02-09T00:24:37.181Z,58.53
2023-02-09T00:25:09.831Z,58.65
2023-02-09T00:25:41.282Z,58.11
2023-02-09T00:26:12.904Z,57.93
2023-02-09T00:26:46.292Z,57.61
2023-02-09T00:27:19.387Z,57.92
2023-02-09T00:27:51.902Z,58.44
2023-02-09T00:28:25.541Z,58.51
2023-02-09T00:28:58.774Z,58.61
2023-02-09T00:29:31.785Z,58.92
2023-02-09T00:30:03.490Z,57.92
2023-02-09T00:30:36.641Z,58.71
2023-02-09T00:31:09.416Z,58.71
2023-02-09T00:31:44.191Z,58.81
2023-02-09T00:32:17.432Z,58.49
2023-02-09T00:32:49.179Z,58.76
2023-02-09T00:33:23.544Z,58.89
2023-02-09T00:33:57.114Z,57.96
2023-02-09T00:34:30.272Z,57.71
2023-02-09T00:35:03.052Z,59.37
2023-02-09T00:35:36.533Z,59.11
2023-02-09T00:36:09.848Z,58.99
2023-02-09T00:36:41.295Z,57.94
2023-02-09T00:37:13.950Z,58.74
2023-02-09T00:37:45.362Z,59.34
2023-02-09T00:38:18.917Z,58.96
2023-02-09T00:38:52.724Z,59.05
2023-02-09T00:39:25.011Z,59.06
2023-02-09T00:39:58.196Z,58.87
2023-02-09T00:40:30.798Z,59.15
2023-02-09T00:41:02.357Z,59.22
2023-02-09T00:41:36.052Z,59.37
2023-02-09T00:42:09.138Z,59.68
2023-02-09T00:42:40.682Z,59.02
2023-02-09T00:43:13.478Z,59.18
2023-02-09T00:43:47.008Z,59.34
2023-02-09T00:44:18.555Z,59.36
2023-02-09T00:44:52.256Z,59.36
2023-02-09T00:45:25.488Z,59.35
2023-02-09T00:45:56.863Z,59.27
2023-02-09T00:46:30.018Z,58.94
2023-02-09T00:47:03.053Z,59.92
2023-02-09T00:47:36.354Z,59.18
2023-02-09T00:48:09.805Z,59.56
2023-02-09T00:48:43.966Z,59.36
2023-02-09T00:49:15.494Z,59.47
2023-02-09T00:49:49.042Z,59.42
2023-02-09T00:50:23.278Z,59.27
2023-02-09T00:50:56.489Z,59.24
2023-02-09T00:51:29.985Z,59.56
2023-02-09T00:52:02.881Z,59.36
2023-02-09T00:52:36.817Z,59.54
2023-02-09T00:53:10.408Z,59.64
2023-02-09T00:53:43.111Z,59.51
2023-02-09T00:54:14.616Z,59.53
2023-02-09T00:54:47.897Z,59.92
2023-02-09T00:55:20.557Z,59.77
2023-02-09T00:55:53.684Z,59.61
2023-02-09T00:56:25.123Z,59.57
2023-02-09T00:56:58.926Z,59.10
2023-02-09T00:57:32.251Z,59.64
2023-02-09T00:58:05.093Z,59.80
2023-02-09T00:58:36.547Z,59.59
2023-02-09T00:59:09.615Z,59.46
2023-02-09T00:59:41.281Z,59.51
2023-02-09T01:00:14.807Z,58.75
2023-02-09T01:00:47.584Z,59.04
2023-02-09T01:01:21.093Z,59.69
2023-02-09T01:01:54.212Z,59.91
2023-02-09T01:02:27.357Z,59.46
2023-02-09T01:03:04.697Z,59.80
2023-02-09T01:03:36.533Z,59.92
2023-02-09T01:04:09.799Z,59.34
2023-02-09T01:04:42.344Z,58.92
2023-02-09T01:05:15.442Z,59.59
2023-02-09T01:05:50.725Z,59.38
2023-02-09T01:06:24.290Z,59.52
2023-02-09T01:06:58.063Z,58.48
2023-02-09T01:07:31.116Z,58.24
2023-02-09T01:08:04.093Z,59.64
2023-02-09T01:08:35.603Z,59.07
2023-02-09T01:09:08.726Z,59.00
2023-02-09T01:09:43.183Z,59.67
2023-02-09T01:10:14.630Z,59.62
2023-02-09T01:10:47.441Z,59.01
2023-02-09T01:11:20.719Z,58.98
2023-02-09T01:11:53.958Z,58.98
2023-02-09T01:12:26.712Z,59.00
2023-02-09T01:13:00.182Z,59.08
2023-02-09T01:13:33.566Z,59.45
2023-02-09T01:14:06.415Z,59.17
2023-02-09T01:14:39.640Z,59.14
2023-02-09T01:15:11.910Z,59.26
2023-02-09T01:15:45.735Z,59.28
2023-02-09T01:16:18.975Z,59.44
2023-02-09T01:16:52.132Z,59.36
2023-02-09T01:17:25.395Z,59.26
2023-02-09T01:17:58.450Z,59.41
2023-02-09T01:18:31.344Z,59.09
2023-02-09T01:19:04.064Z,59.38
2023-02-09T01:19:37.497Z,59.12
2023-02-09T01:20:10.790Z,59.19
2023-02-09T01:20:46.414Z,59.03
2023-02-09T01:21:19.650Z,59.37
2023-02-09T01:21:52.718Z,59.51
2023-02-09T01:22:26.279Z,59.22
2023-02-09T01:22:57.821Z,59.11
2023-02-09T01:23:30.479Z,59.42
2023-02-09T01:24:04.137Z,59.37
2023-02-09T01:24:37.175Z,59.19
2023-02-09T01:25:10.413Z,58.92
2023-02-09T01:25:44.291Z,58.95
2023-02-09T01:26:17.608Z,59.54
2023-02-09T01:26:50.709Z,59.11
2023-02-09T01:27:23.312Z,59.00
2023-02-09T01:27:55.370Z,59.21
2023-02-09T01:28:27.040Z,59.48
2023-02-09T01:29:00.296Z,59.23
2023-02-09T01:29:33.173Z,59.29
2023-02-09T01:30:04.698Z,59.30
2023-02-09T01:30:38.120Z,59.24
2023-02-09T01:31:11.919Z,59.04
2023-02-09T01:31:45.061Z,59.28
2023-02-09T01:32:17.968Z,59.23
2023-02-09T01:32:50.889Z,59.38
2023-02-09T01:33:22.306Z,59.52
2023-02-09T01:33:55.840Z,59.43
2023-02-09T01:34:28.932Z,59.58
2023-02-09T01:35:01.864Z,59.50
2023-02-09T01:35:34.718Z,59.24
2023-02-09T01:36:07.883Z,59.46
2023-02-09T01:36:42.658Z,59.38
2023-02-09T01:37:15.288Z,59.31
2023-02-09T01:37:50.283Z,59.15
2023-02-09T01:38:23.446Z,59.44
2023-02-09T01:38:56.217Z,58.96
2023-02-09T01:39:29.695Z,58.80
2023-02-09T01:40:02.979Z,58.89
2023-02-09T01:40:35.756Z,58.71
2023-02-09T01:41:08.921Z,58.83
2023-02-09T01:41:42.414Z,59.32
2023-02-09T01:42:15.027Z,58.94
2023-02-09T01:42:47.467Z,58.46
2023-02-09T01:43:20.645Z,58.23
2023-02-09T01:43:53.721Z,57.96
2023-02-09T01:44:28.363Z,57.65
2023-02-09T01:45:01.931Z,57.48
2023-02-09T01:45:35.564Z,57.22
2023-02-09T01:46:09.038Z,57.00
2023-02-09T01:46:40.835Z,57.09
2023-02-09T01:47:13.956Z,57.10
2023-02-09T01:47:46.226Z,57.22
2023-02-09T01:48:19.256Z,57.91
2023-02-09T01:48:52.272Z,58.27
2023-02-09T01:49:25.344Z,58.48
2023-02-09T01:49:56.952Z,58.63
2023-02-09T01:50:28.759Z,58.76
2023-02-09T01:51:00.530Z,58.72
2023-02-09T01:51:33.901Z,58.71
2023-02-09T01:52:06.562Z,58.55
2023-02-09T01:52:40.099Z,58.64
2023-02-09T01:53:12.721Z,58.53
2023-02-09T01:53:46.173Z,58.61
2023-02-09T01:54:19.729Z,58.77
2023-02-09T01:54:52.737Z,58.90
2023-02-09T01:55:25.616Z,58.65
2023-02-09T01:55:57.264Z,58.35
2023-02-09T01:56:32.282Z,58.90
2023-02-09T01:57:05.707Z,58.83
2023-02-09T01:57:38.788Z,58.12
2023-02-09T01:58:12.348Z,58.61
2023-02-09T01:58:43.854Z,59.50
2023-02-09T01:59:16.923Z,59.61
2023-02-09T01:59:49.698Z,58.74
2023-02-09T02:00:21.105Z,58.02
2023-02-09T02:00:59.613Z,59.34
2023-02-09T02:01:31.892Z,59.88
2023-02-09T02:02:05.240Z,58.32
2023-02-09T02:02:38.456Z,57.94
2023-02-09T02:03:11.777Z,57.67
2023-02-09T02:03:45.893Z,58.02
2023-02-09T02:04:17.822Z,58.11
2023-02-09T02:04:50.990Z,58.27
2023-02-09T02:05:22.520Z,58.52
2023-02-09T02:05:55.645Z,58.51
2023-02-09T02:06:27.164Z,58.94
2023-02-09T02:06:59.256Z,58.74
2023-02-09T02:07:33.168Z,58.62
2023-02-09T02:08:05.927Z,58.63
2023-02-09T02:08:39.878Z,58.74
2023-02-09T02:09:12.701Z,58.51
2023-02-09T02:09:45.575Z,58.60
2023-02-09T02:10:19.222Z,58.87
2023-02-09T02:10:50.878Z,58.52
2023-02-09T02:11:24.134Z,58.50
2023-02-09T02:11:57.656Z,58.44
2023-02-09T02:12:30.289Z,58.77
2023-02-09T02:13:03.824Z,58.65
2023-02-09T02:13:35.221Z,58.63
2023-02-09T02:14:09.269Z,58.48
2023-02-09T02:14:42.002Z,58.44
2023-02-09T02:15:14.658Z,58.50
2023-02-09T02:15:47.416Z,58.64
2023-02-09T02:16:20.633Z,58.64
2023-02-09T02:16:54.425Z,58.76
2023-02-09T02:17:27.144Z,58.68
2023-02-09T02:18:00.079Z,58.64
2023-02-09T02:18:32.807Z,58.80
2023-02-09T02:19:05.939Z,58.78
2023-02-09T02:19:37.678Z,58.58
2023-02-09T02:20:09.175Z,58.61
2023-02-09T02:20:42.964Z,58.50
2023-02-09T02:21:15.780Z,58.78
2023-02-09T02:21:48.434Z,58.94
2023-02-09T02:22:21.653Z,58.67
2023-02-09T02:22:54.375Z,58.57
2023-02-09T02:23:25.924Z,58.41
2023-02-09T02:23:58.851Z,58.65
2023-02-09T02:24:32.240Z,58.73
2023-02-09T02:25:05.018Z,58.84
2023-02-09T02:25:38.267Z,58.60
2023-02-09T02:26:11.484Z,58.33
2023-02-09T02:26:44.380Z,58.78
2023-02-09T02:27:17.418Z,58.53
2023-02-09T02:27:50.782Z,58.53
2023-02-09T02:28:24.379Z,58.45
2023-02-09T02:28:57.708Z,58.46
2023-02-09T02:29:31.325Z,58.29
2023-02-09T02:30:04.726Z,58.22
2023-02-09T02:30:38.995Z,58.24
2023-02-09T02:31:12.377Z,58.27
2023-02-09T02:31:45.225Z,58.46
2023-02-09T02:32:17.956Z,59.82
2023-02-09T02:32:49.410Z,58.08
2023-02-09T02:33:22.558Z,58.36
2023-02-09T02:33:54.279Z,58.29
2023-02-09T02:34:27.415Z,58.28
2023-02-09T02:34:58.843Z,58.42
2023-02-09T02:35:32.697Z,58.09
2023-02-09T02:36:06.221Z,58.04
2023-02-09T02:36:39.515Z,58.31
2023-02-09T02:37:12.885Z,58.63
2023-02-09T02:37:45.370Z,58.28
2023-02-09T02:38:19.150Z,58.48
2023-02-09T02:38:52.271Z,58.82
2023-02-09T02:39:25.349Z,58.22
2023-02-09T02:39:59.064Z,58.14
2023-02-09T02:40:32.091Z,58.22
2023-02-09T02:41:05.801Z,58.14
2023-02-09T02:41:38.592Z,58.47
2023-02-09T02:42:11.684Z,58.36
2023-02-09T02:42:43.258Z,58.33
2023-02-09T02:43:15.956Z,58.38
2023-02-09T02:43:49.806Z,58.07
2023-02-09T02:44:23.371Z,58.49
2023-02-09T02:44:57.162Z,58.29
2023-02-09T02:45:28.700Z,58.39
2023-02-09T02:46:02.387Z,58.26
2023-02-09T02:46:34.221Z,57.89
2023-02-09T02:47:06.896Z,58.30
2023-02-09T02:47:40.530Z,58.29
2023-02-09T02:48:13.439Z,58.52
2023-02-09T02:48:46.221Z,58.41
2023-02-09T02:49:19.739Z,58.26
2023-02-09T02:49:52.800Z,58.29
2023-02-09T02:50:24.905Z,58.02
2023-02-09T02:50:58.115Z,58.55
2023-02-09T02:51:31.436Z,58.52
2023-02-09T02:52:04.724Z,58.26
2023-02-09T02:52:37.499Z,58.54
2023-02-09T02:53:10.792Z,58.11
2023-02-09T02:53:43.525Z,58.16
2023-02-09T02:54:16.388Z,57.90
2023-02-09T02:54:49.559Z,58.13
2023-02-09T02:55:21.038Z,58.28
2023-02-09T02:55:54.228Z,58.06
2023-02-09T02:56:26.357Z,58.05
2023-02-09T02:56:57.940Z,58.24
2023-02-09T02:57:29.628Z,57.41
2023-02-09T02:58:02.649Z,57.55
2023-02-09T02:58:34.675Z,57.64
2023-02-09T02:59:07.310Z,57.42
2023-02-09T02:59:38.907Z,57.28
2023-02-09T03:00:11.804Z,57.27
2023-02-09T03:00:45.084Z,57.21
2023-02-09T03:01:18.980Z,57.09
2023-02-09T03:01:53.168Z,57.07
2023-02-09T03:02:26.068Z,57.26
2023-02-09T03:02:58.932Z,57.64
2023-02-09T03:03:31.568Z,57.78
2023-02-09T03:04:04.775Z,57.85
2023-02-09T03:04:38.168Z,57.99
2023-02-09T03:05:11.612Z,58.00
2023-02-09T03:05:44.513Z,57.88
2023-02-09T03:06:17.713Z,57.88
2023-02-09T03:06:51.466Z,57.92
2023-02-09T03:07:24.533Z,57.79
2023-02-09T03:07:57.709Z,57.79
2023-02-09T03:08:29.371Z,57.71
2023-02-09T03:09:00.907Z,57.98
2023-02-09T03:09:34.874Z,58.06
2023-02-09T03:10:06.539Z,58.12
2023-02-09T03:10:38.063Z,57.97
2023-02-09T03:11:09.483Z,57.99
2023-02-09T03:11:42.703Z,57.81
2023-02-09T03:12:14.202Z,57.92
2023-02-09T03:12:45.799Z,57.84
2023-02-09T03:13:18.351Z,57.84
2023-02-09T03:13:51.520Z,57.79
2023-02-09T03:14:25.489Z,57.95
2023-02-09T03:14:58.514Z,58.04
2023-02-09T03:15:31.580Z,57.65
2023-02-09T03:16:06.735Z,57.81
2023-02-09T03:16:39.465Z,57.71
2023-02-09T03:17:12.925Z,57.88
2023-02-09T03:17:45.364Z,57.97
2023-02-09T03:18:18.342Z,58.08
2023-02-09T03:18:51.472Z,57.69
2023-02-09T03:19:24.681Z,57.71
2023-02-09T03:19:59.532Z,57.92
2023-02-09T03:20:31.006Z,57.92
2023-02-09T03:21:04.410Z,57.81
2023-02-09T03:21:37.005Z,58.07
2023-02-09T03:22:13.616Z,57.94
2023-02-09T03:22:45.160Z,58.09
2023-02-09T03:23:18.596Z,58.32
2023-02-09T03:23:50.012Z,58.19
2023-02-09T03:24:23.324Z,58.34
2023-02-09T03:24:56.668Z,58.22
2023-02-09T03:25:28.227Z,58.34
2023-02-09T03:25:59.662Z,58.25
2023-02-09T03:26:32.923Z,58.11
2023-02-09T03:27:06.549Z,58.20
2023-02-09T03:27:40.653Z,58.51
2023-02-09T03:28:13.999Z,58.65
2023-02-09T03:28:46.677Z,58.51
2023-02-09T03:29:19.915Z,58.44
2023-02-09T03:29:53.048Z,58.68
2023-02-09T03:30:24.541Z,58.35
2023-02-09T03:30:57.994Z,58.32
2023-02-09T03:31:30.923Z,58.49
2023-02-09T03:32:04.231Z,58.15
2023-02-09T03:32:37.733Z,58.49
2023-02-09T03:33:10.876Z,58.26
2023-02-09T03:33:43.984Z,58.30
2023-02-09T03:34:20.440Z,58.13
2023-02-09T03:34:53.925Z,58.25
2023-02-09T03:35:25.368Z,58.09
2023-02-09T03:35:58.623Z,58.22
2023-02-09T03:36:31.436Z,58.05
2023-02-09T03:37:04.527Z,58.08
2023-02-09T03:37:37.479Z,58.11
2023-02-09T03:38:10.705Z,58.14
2023-02-09T03:38:43.839Z,58.22
2023-02-09T03:39:16.478Z,58.09
2023-02-09T03:39:47.909Z,57.95
2023-02-09T03:40:20.044Z,58.14
2023-02-09T03:40:54.988Z,58.18
2023-02-09T03:41:28.050Z,58.30
2023-02-09T03:42:00.740Z,58.39
2023-02-09T03:42:34.599Z,58.22
2023-02-09T03:43:08.425Z,58.02
2023-02-09T03:43:41.866Z,58.09
2023-02-09T03:44:13.322Z,58.21
2023-02-09T03:44:46.073Z,58.07
2023-02-09T03:45:21.633Z,57.83
2023-02-09T03:45:55.025Z,58.27
2023-02-09T03:46:28.144Z,58.57
2023-02-09T03:47:01.020Z,58.21
2023-02-09T03:47:34.711Z,57.78
2023-02-09T03:48:06.189Z,57.71
2023-02-09T03:48:37.768Z,57.98
2023-02-09T03:49:12.013Z,58.28
2023-02-09T03:49:43.616Z,58.26
2023-02-09T03:50:16.382Z,57.82
2023-02-09T03:50:49.051Z,58.21
2023-02-09T03:51:21.673Z,58.47
2023-02-09T03:51:55.159Z,58.27
2023-02-09T03:52:29.232Z,58.47
2023-02-09T03:53:01.851Z,57.83
2023-02-09T03:53:34.090Z,58.28
2023-02-09T03:54:07.220Z,57.84
2023-02-09T03:54:40.305Z,57.73
2023-02-09T03:55:13.416Z,57.57
2023-02-09T03:55:45.012Z,57.57
2023-02-09T03:56:18.368Z,57.42
2023-02-09T03:56:51.881Z,57.35
2023-02-09T03:57:24.951Z,57.41
2023-02-09T03:57:58.061Z,57.61
2023-02-09T03:58:31.080Z,57.56
2023-02-09T03:59:04.511Z,57.68
2023-02-09T03:59:37.588Z,58.09
2023-02-09T04:00:10.627Z,58.26
2023-02-09T04:00:44.014Z,59.20
2023-02-09T04:01:17.678Z,58.60
2023-02-09T04:01:50.444Z,58.38
2023-02-09T04:02:23.850Z,58.09
2023-02-09T04:02:56.947Z,58.29
2023-02-09T04:03:30.937Z,58.12
2023-02-09T04:04:04.508Z,58.16
2023-02-09T04:04:37.888Z,58.53
2023-02-09T04:05:10.572Z,57.84
2023-02-09T04:05:43.839Z,57.80
2023-02-09T04:06:17.050Z,58.04
2023-02-09T04:06:50.056Z,57.59
2023-02-09T04:07:23.219Z,57.58
2023-02-09T04:07:56.387Z,57.22
2023-02-09T04:08:29.365Z,58.38
2023-02-09T04:09:01.246Z,57.82
2023-02-09T04:09:34.610Z,57.21
2023-02-09T04:10:07.655Z,57.45
2023-02-09T04:10:41.232Z,57.06
2023-02-09T04:11:14.486Z,56.30
2023-02-09T04:11:47.267Z,56.27
2023-02-09T04:12:18.748Z,57.05
2023-02-09T04:12:54.333Z,56.46
2023-02-09T04:13:27.395Z,56.62
2023-02-09T04:14:01.551Z,56.87
2023-02-09T04:14:35.295Z,56.84
2023-02-09T04:15:07.977Z,56.84
2023-02-09T04:15:41.617Z,56.86
2023-02-09T04:16:14.630Z,56.63
2023-02-09T04:16:49.944Z,56.02
2023-02-09T04:17:21.714Z,56.58
2023-02-09T04:17:55.029Z,55.40
2023-02-09T04:18:28.107Z,57.02
2023-02-09T04:19:00.792Z,56.58
2023-02-09T04:19:32.829Z,56.40
2023-02-09T04:20:06.958Z,55.93
2023-02-09T04:20:38.998Z,56.67
2023-02-09T04:21:10.534Z,55.81
2023-02-09T04:21:43.143Z,55.92
2023-02-09T04:22:16.249Z,56.39
2023-02-09T04:22:47.648Z,55.86
2023-02-09T04:23:21.298Z,55.43
2023-02-09T04:23:52.769Z,56.14
2023-02-09T04:24:25.810Z,55.09
2023-02-09T04:24:59.068Z,55.83
2023-02-09T04:25:30.763Z,55.42
2023-02-09T04:26:04.026Z,54.69
2023-02-09T04:26:37.132Z,54.66
2023-02-09T04:27:10.850Z,55.17
2023-02-09T04:27:44.485Z,54.02
2023-02-09T04:28:17.902Z,54.22
2023-02-09T04:28:51.706Z,54.17
2023-02-09T04:29:25.370Z,54.08
2023-02-09T04:29:56.961Z,54.75
2023-02-09T04:30:29.059Z,55.37
2023-02-09T04:31:02.293Z,55.11
2023-02-09T04:31:35.425Z,54.81
2023-02-09T04:32:09.092Z,55.11
2023-02-09T04:32:43.203Z,55.30
2023-02-09T04:33:16.110Z,55.24
2023-02-09T04:33:48.789Z,55.92
2023-02-09T04:34:20.571Z,55.41
2023-02-09T04:34:54.033Z,55.30
2023-02-09T04:35:25.587Z,54.34
2023-02-09T04:35:59.228Z,56.37
2023-02-09T04:36:32.457Z,56.38
2023-02-09T04:37:06.249Z,55.06
2023-02-09T04:37:38.761Z,55.93
2023-02-09T04:38:12.247Z,54.70
2023-02-09T04:38:45.123Z,55.82
2023-02-09T04:39:18.402Z,55.48
2023-02-09T04:39:51.039Z,56.05
2023-02-09T04:40:22.952Z,55.58
2023-02-09T04:40:55.854Z,55.17
2023-02-09T04:41:29.230Z,55.37
2023-02-09T04:42:02.066Z,54.66
2023-02-09T04:42:33.750Z,55.06
2023-02-09T04:43:05.233Z,54.33
2023-02-09T04:43:36.744Z,55.11
2023-02-09T04:44:08.442Z,53.87
2023-02-09T04:44:39.939Z,54.88
2023-02-09T04:45:11.864Z,54.47
2023-02-09T04:45:43.563Z,54.49
2023-02-09T04:46:15.733Z,55.12
2023-02-09T04:46:47.513Z,54.60
2023-02-09T04:47:19.090Z,54.96
2023-02-09T04:47:50.688Z,55.09
2023-02-09T04:48:22.268Z,55.15
2023-02-09T04:48:53.837Z,53.60
2023-02-09T04:49:26.364Z,54.97
2023-02-09T04:49:57.873Z,54.86
2023-02-09T04:50:29.510Z,54.14
2023-02-09T04:51:01.013Z,54.12
2023-02-09T04:51:32.682Z,54.06
2023-02-09T04:52:04.205Z,53.84
2023-02-09T04:52:35.788Z,54.60
2023-02-09T04:53:07.312Z,54.45
2023-02-09T04:53:38.906Z,53.01
2023-02-09T04:54:10.429Z,54.17
2023-02-09T04:54:42.029Z,54.21
2023-02-09T04:55:13.569Z,54.45
2023-02-09T04:55:45.096Z,52.80
2023-02-09T04:56:16.685Z,54.11
2023-02-09T04:56:48.374Z,54.60
2023-02-09T04:57:19.855Z,53.92
2023-02-09T04:57:51.466Z,52.93
2023-02-09T04:58:23.103Z,53.42
2023-02-09T04:58:54.664Z,53.65
2023-02-09T04:59:26.186Z,53.92
2023-02-09T04:59:57.741Z,53.68
2023-02-09T05:00:29.264Z,54.19
2023-02-09T05:01:00.931Z,53.90
2023-02-09T05:01:32.569Z,53.42
2023-02-09T05:02:04.478Z,53.43
2023-02-09T05:02:35.959Z,53.28
2023-02-09T05:03:07.550Z,53.21
2023-02-09T05:03:39.935Z,53.49
2023-02-09T05:04:13.634Z,53.80
2023-02-09T05:04:45.357Z,52.75
2023-02-09T05:05:16.935Z,53.54
2023-02-09T05:05:48.556Z,52.94
2023-02-09T05:06:20.178Z,52.60
2023-02-09T05:06:51.690Z,52.77
2023-02-09T05:07:23.326Z,51.78
2023-02-09T05:07:54.831Z,52.24
2023-02-09T05:08:26.334Z,53.57
2023-02-09T05:08:57.883Z,52.59
2023-02-09T05:09:29.529Z,52.68
2023-02-09T05:10:01.022Z,52.07
2023-02-09T05:10:32.539Z,52.50
2023-02-09T05:11:04.101Z,52.55
2023-02-09T05:11:35.703Z,52.78
2023-02-09T05:12:08.234Z,52.36
2023-02-09T05:12:39.891Z,51.57
2023-02-09T05:13:11.550Z,52.47
2023-02-09T05:13:43.111Z,52.28
2023-02-09T05:14:14.620Z,51.99
2023-02-09T05:14:46.486Z,52.38
2023-02-09T05:15:18.089Z,52.10
2023-02-09T05:15:49.568Z,51.30
2023-02-09T05:16:21.249Z,51.13
2023-02-09T05:16:53.081Z,52.38
2023-02-09T05:17:24.930Z,52.25
2023-02-09T05:17:58.256Z,52.11
2023-02-09T05:18:29.857Z,51.28
2023-02-09T05:19:01.349Z,51.85
2023-02-09T05:19:32.906Z,51.67
2023-02-09T05:20:04.481Z,51.51
2023-02-09T05:20:36.001Z,50.96
2023-02-09T05:21:07.502Z,52.16
2023-02-09T05:21:39.309Z,51.97
2023-02-09T05:22:11.132Z,52.16
2023-02-09T05:22:42.698Z,51.11
2023-02-09T05:23:14.208Z,51.26
2023-02-09T05:23:45.840Z,50.64
2023-02-09T05:24:20.729Z,51.39
2023-02-09T05:24:52.555Z,51.30
2023-02-09T05:25:24.135Z,51.20
2023-02-09T05:25:55.625Z,51.74
2023-02-09T05:26:27.237Z,51.32
2023-02-09T05:26:58.751Z,51.53
2023-02-09T05:27:30.273Z,50.51
2023-02-09T05:28:01.919Z,50.49
2023-02-09T05:28:33.448Z,51.39
2023-02-09T05:29:05.038Z,51.85
2023-02-09T05:29:36.791Z,51.45
2023-02-09T05:30:08.355Z,51.22
2023-02-09T05:30:40.011Z,51.75
2023-02-09T05:31:11.994Z,50.96
2023-02-09T05:31:45.356Z,50.69
2023-02-09T05:32:19.198Z,50.95
2023-02-09T05:32:52.296Z,51.00
2023-02-09T05:33:24.760Z,51.69
2023-02-09T05:33:57.895Z,50.65
2023-02-09T05:34:30.999Z,50.76
2023-02-09T05:35:03.593Z,50.31
2023-02-09T05:35:36.385Z,50.99
2023-02-09T05:36:09.702Z,50.57
2023-02-09T05:36:51.357Z,50.56
2023-02-09T05:37:22.876Z,50.55
2023-02-09T05:37:56.435Z,50.43
2023-02-09T05:38:32.737Z,50.72
2023-02-09T05:39:05.651Z,49.54
2023-02-09T05:39:38.603Z,49.99
2023-02-09T05:40:11.925Z,49.28
2023-02-09T05:40:45.867Z,50.29
2023-02-09T05:41:19.377Z,49.46
2023-02-09T05:41:52.679Z,49.37
2023-02-09T05:42:25.880Z,48.70
2023-02-09T05:42:58.999Z,49.04
2023-02-09T05:43:31.943Z,49.07
2023-02-09T05:44:04.362Z,48.92
2023-02-09T05:44:37.466Z,49.59
2023-02-09T05:45:12.255Z,48.47
2023-02-09T05:45:44.835Z,49.49
2023-02-09T05:46:17.674Z,48.60
2023-02-09T05:46:50.007Z,49.63
2023-02-09T05:47:23.506Z,48.34
2023-02-09T05:47:56.600Z,48.72
2023-02-09T05:48:29.528Z,48.12
2023-02-09T05:49:02.132Z,48.54
2023-02-09T05:49:34.806Z,49.11
2023-02-09T05:50:07.535Z,48.99
2023-02-09T05:50:40.446Z,49.20
2023-02-09T05:51:13.129Z,49.71
2023-02-09T05:51:45.880Z,49.64
2023-02-09T05:52:19.039Z,48.86
2023-02-09T05:52:51.876Z,48.78
2023-02-09T05:53:24.709Z,48.02
2023-02-09T05:53:58.006Z,48.44
2023-02-09T05:54:30.877Z,48.09
2023-02-09T05:55:03.639Z,48.70
2023-02-09T05:55:36.581Z,48.92
2023-02-09T05:56:09.680Z,48.84
2023-02-09T05:56:42.069Z,48.77
2023-02-09T05:57:15.055Z,48.99
2023-02-09T05:57:47.704Z,49.03
2023-02-09T05:58:20.498Z,48.28
2023-02-09T05:58:53.042Z,48.51
2023-02-09T05:59:25.756Z,48.28
2023-02-09T05:59:59.000Z,48.67
2023-02-09T06:00:31.705Z,48.30
2023-02-09T06:01:04.249Z,49.14
2023-02-09T06:01:37.164Z,48.37
2023-02-09T06:02:10.454Z,47.96
2023-02-09T06:02:43.542Z,47.84
2023-02-09T06:03:16.402Z,47.53
2023-02-09T06:03:49.035Z,47.46
2023-02-09T06:04:22.702Z,47.86
2023-02-09T06:04:55.567Z,47.43
2023-02-09T06:05:28.765Z,47.52
2023-02-09T06:06:01.530Z,47.33
2023-02-09T06:06:34.333Z,47.54
2023-02-09T06:07:07.222Z,47.42
2023-02-09T06:07:39.615Z,47.55
2023-02-09T06:08:12.891Z,47.64
2023-02-09T06:08:46.191Z,47.93
2023-02-09T06:09:19.187Z,46.87
2023-02-09T06:09:51.952Z,46.95
2023-02-09T06:10:29.516Z,47.59
2023-02-09T06:11:03.034Z,47.35
2023-02-09T06:11:37.737Z,47.70
2023-02-09T06:12:13.950Z,47.95
2023-02-09T06:12:46.835Z,46.79
2023-02-09T06:13:19.936Z,46.89
2023-02-09T06:13:53.707Z,47.27
2023-02-09T06:14:26.747Z,47.31
2023-02-09T06:14:59.628Z,47.29
2023-02-09T06:15:32.346Z,47.06
2023-02-09T06:16:04.901Z,47.62
2023-02-09T06:16:37.304Z,47.53
2023-02-09T06:17:10.297Z,49.07
2023-02-09T06:17:42.853Z,48.46
2023-02-09T06:18:15.707Z,48.24
2023-02-09T06:18:48.325Z,47.61
2023-02-09T06:19:20.923Z,48.58
2023-02-09T06:19:53.766Z,47.85
2023-02-09T06:20:27.157Z,47.85
2023-02-09T06:20:59.589Z,48.02
2023-02-09T06:21:32.230Z,47.27
2023-02-09T06:22:04.885Z,47.36
2023-02-09T06:22:37.464Z,47.46
2023-02-09T06:23:10.210Z,48.33
2023-02-09T06:23:43.271Z,47.14
2023-02-09T06:24:15.984Z,46.49
2023-02-09T06:24:49.222Z,47.81
2023-02-09T06:25:23.203Z,47.19
2023-02-09T06:25:55.987Z,47.11
2023-02-09T06:26:29.174Z,46.81
2023-02-09T06:27:01.866Z,47.55
2023-02-09T06:27:34.628Z,47.00
2023-02-09T06:28:07.706Z,46.49
2023-02-09T06:28:40.676Z,46.75
2023-02-09T06:29:13.547Z,46.28
2023-02-09T06:29:46.319Z,46.83
2023-02-09T06:30:19.424Z,45.88
2023-02-09T06:30:52.742Z,46.44
2023-02-09T06:31:25.564Z,45.89
2023-02-09T06:31:58.851Z,46.66
2023-02-09T06:32:31.812Z,46.14
2023-02-09T06:33:04.298Z,45.96
2023-02-09T06:33:36.723Z,45.95
2023-02-09T06:34:09.377Z,45.69
2023-02-09T06:34:43.608Z,45.86
2023-02-09T06:35:16.560Z,45.75
2023-02-09T06:35:52.238Z,46.33
2023-02-09T06:36:25.433Z,45.60
2023-02-09T06:36:58.221Z,45.52
2023-02-09T06:37:31.061Z,45.86
2023-02-09T06:38:03.564Z,45.19
2023-02-09T06:38:35.920Z,45.42
2023-02-09T06:39:08.792Z,45.63
2023-02-09T06:39:41.909Z,45.87
2023-02-09T06:40:14.619Z,45.39
2023-02-09T06:40:55.861Z,45.83
2023-02-09T06:41:29.085Z,45.64
2023-02-09T06:42:00.565Z,45.64
2023-02-09T06:42:33.698Z,46.07
2023-02-09T06:43:06.274Z,45.58
2023-02-09T06:43:37.782Z,45.13
2023-02-09T06:44:09.198Z,46.04
2023-02-09T06:44:42.290Z,45.25
2023-02-09T06:45:15.202Z,45.94
2023-02-09T06:45:48.347Z,44.98
2023-02-09T06:46:20.555Z,45.31
2023-02-09T06:46:53.128Z,45.43
2023-02-09T06:47:26.109Z,45.46
2023-02-09T06:47:59.143Z,45.67
2023-02-09T06:48:32.001Z,45.47
2023-02-09T06:49:04.724Z,45.54
2023-02-09T06:49:37.467Z,45.70
2023-02-09T06:50:09.177Z,45.57
2023-02-09T06:50:42.792Z,45.24
2023-02-09T06:51:15.594Z,45.10
2023-02-09T06:51:48.324Z,45.04
2023-02-09T06:52:22.757Z,44.93
2023-02-09T06:52:55.409Z,44.65
2023-02-09T06:53:28.596Z,44.62
2023-02-09T06:54:01.800Z,45.08
2023-02-09T06:54:35.521Z,44.67
2023-02-09T06:55:08.826Z,44.67
2023-02-09T06:55:41.933Z,44.58
2023-02-09T06:56:14.859Z,44.88
2023-02-09T06:56:47.459Z,45.07
2023-02-09T06:57:20.669Z,45.25
2023-02-09T06:57:53.229Z,45.15
2023-02-09T06:58:26.302Z,44.96
2023-02-09T06:58:59.190Z,44.82
2023-02-09T06:59:32.194Z,44.78
2023-02-09T07:00:04.766Z,44.08
2023-02-09T07:00:39.278Z,45.37
2023-02-09T07:01:10.765Z,45.36
2023-02-09T07:01:43.486Z,44.36
2023-02-09T07:02:16.196Z,44.19
2023-02-09T07:02:47.713Z,44.62
2023-02-09T07:03:21.468Z,45.24